sensor_id;sensor_type;location;lat;lon;timestamp;pressure;altitude;pressure_sealevel;temperature;humidity
42361;BME280;54542;51.562;0.004;2022-09-03T00:00:06;100826.20;;;16.45;57.10
42361;BME280;54542;51.562;0.004;2022-09-03T00:02:39;100826.96;;;16.38;57.19
42361;BME280;54542;51.562;0.004;2022-09-03T00:05:12;100825.56;;;15.82;57.12
42361;BME280;54542;51.562;0.004;2022-09-03T00:07:48;100822.54;;;15.75;57.09
42361;BME280;54542;51.562;0.004;2022-09-03T00:10:22;100816.46;;;15.70;57.30
42361;BME280;54542;51.562;0.004;2022-09-03T00:12:53;100817.59;;;16.17;57.35
42361;BME280;54542;51.562;0.004;2022-09-03T00:15:24;100818.92;;;15.66;57.36
42361;BME280;54542;51.562;0.004;2022-09-03T00:17:54;100817.98;;;16.17;57.31
42361;BME280;54542;51.562;0.004;2022-09-03T00:20:27;100814.93;;;16.10;57.41
42361;BME280;54542;51.562;0.004;2022-09-03T00:22:58;100811.92;;;15.93;57.11
42361;BME280;54542;51.562;0.004;2022-09-03T00:25:33;100813.54;;;15.84;57.07
42361;BME280;54542;51.562;0.004;2022-09-03T00:28:19;100811.53;;;15.76;57.17
42361;BME280;54542;51.562;0.004;2022-09-03T00:30:52;100810.66;;;15.66;57.18
42361;BME280;54542;51.562;0.004;2022-09-03T00:33:25;100804.73;;;15.66;57.18
42361;BME280;54542;51.562;0.004;2022-09-03T00:36:04;100803.29;;;15.56;57.22
42361;BME280;54542;51.562;0.004;2022-09-03T00:38:37;100804.45;;;15.96;57.15
42361;BME280;54542;51.562;0.004;2022-09-03T00:41:08;100802.16;;;15.84;57.23
42361;BME280;54542;51.562;0.004;2022-09-03T00:43:51;100802.78;;;15.35;57.35
42361;BME280;54542;51.562;0.004;2022-09-03T00:46:25;100806.15;;;15.28;57.44
42361;BME280;54542;51.562;0.004;2022-09-03T00:49:16;100804.30;;;15.29;57.70
42361;BME280;54542;51.562;0.004;2022-09-03T00:51:52;100806.95;;;15.20;57.61
42361;BME280;54542;51.562;0.004;2022-09-03T00:54:28;100809.16;;;15.24;57.41
42361;BME280;54542;51.562;0.004;2022-09-03T00:57:08;100807.61;;;15.98;57.44
42361;BME280;54542;51.562;0.004;2022-09-03T00:59:43;100804.93;;;15.03;57.51
42361;BME280;54542;51.562;0.004;2022-09-03T01:02:21;100809.96;;;14.99;57.75
42361;BME280;54542;51.562;0.004;2022-09-03T01:04:55;100811.94;;;15.77;57.86
42361;BME280;54542;51.562;0.004;2022-09-03T01:07:31;100807.16;;;15.32;57.97
42361;BME280;54542;51.562;0.004;2022-09-03T01:10:08;100805.31;;;14.88;57.85
42361;BME280;54542;51.562;0.004;2022-09-03T01:12:45;100800.70;;;15.25;57.95
42361;BME280;54542;51.562;0.004;2022-09-03T01:15:21;100799.45;;;15.60;57.97
42361;BME280;54542;51.562;0.004;2022-09-03T01:18:02;100799.80;;;15.10;58.13
42361;BME280;54542;51.562;0.004;2022-09-03T01:20:42;100800.23;;;15.13;58.16
42361;BME280;54542;51.562;0.004;2022-09-03T01:23:26;100795.14;;;15.09;58.34
42361;BME280;54542;51.562;0.004;2022-09-03T01:26:15;100793.96;;;15.00;58.33
42361;BME280;54542;51.562;0.004;2022-09-03T01:28:56;100792.98;;;14.55;58.46
42361;BME280;54542;51.562;0.004;2022-09-03T01:34:48;100788.57;;;14.45;60.56
42361;BME280;54542;51.562;0.004;2022-09-03T01:37:25;100788.79;;;14.76;59.60
42361;BME280;54542;51.562;0.004;2022-09-03T01:40:02;100788.45;;;14.07;59.15
42361;BME280;54542;51.562;0.004;2022-09-03T01:42:38;100790.87;;;15.06;59.13
42361;BME280;54542;51.562;0.004;2022-09-03T01:45:20;100794.83;;;15.13;58.95
42361;BME280;54542;51.562;0.004;2022-09-03T01:48:03;100794.49;;;15.07;58.71
42361;BME280;54542;51.562;0.004;2022-09-03T01:50:41;100796.78;;;14.97;58.90
42361;BME280;54542;51.562;0.004;2022-09-03T01:53:24;100795.33;;;14.95;58.66
42361;BME280;54542;51.562;0.004;2022-09-03T01:56:05;100796.04;;;14.92;58.77
42361;BME280;54542;51.562;0.004;2022-09-03T01:58:39;100795.63;;;14.90;58.83
42361;BME280;54542;51.562;0.004;2022-09-03T02:01:14;100795.57;;;14.90;58.68
42361;BME280;54542;51.562;0.004;2022-09-03T02:03:44;100796.39;;;14.44;58.98
42361;BME280;54542;51.562;0.004;2022-09-03T02:06:11;100791.52;;;14.89;58.90
42361;BME280;54542;51.562;0.004;2022-09-03T02:08:39;100790.78;;;14.87;58.78
42361;BME280;54542;51.562;0.004;2022-09-03T02:11:08;100789.81;;;14.44;58.80
42361;BME280;54542;51.562;0.004;2022-09-03T02:13:38;100788.85;;;14.79;58.95
42361;BME280;54542;51.562;0.004;2022-09-03T02:16:11;100787.91;;;14.78;59.14
42361;BME280;54542;51.562;0.004;2022-09-03T02:18:43;100784.54;;;14.82;59.04
42361;BME280;54542;51.562;0.004;2022-09-03T02:21:13;100784.35;;;14.76;59.09
42361;BME280;54542;51.562;0.004;2022-09-03T02:23:42;100785.34;;;14.79;59.09
42361;BME280;54542;51.562;0.004;2022-09-03T02:26:11;100783.26;;;14.32;59.09
42361;BME280;54542;51.562;0.004;2022-09-03T02:28:40;100783.19;;;14.70;59.40
42361;BME280;54542;51.562;0.004;2022-09-03T02:31:07;100783.65;;;14.73;59.16
42361;BME280;54542;51.562;0.004;2022-09-03T02:33:37;100786.79;;;14.76;59.21
42361;BME280;54542;51.562;0.004;2022-09-03T02:36:08;100790.62;;;14.72;59.43
42361;BME280;54542;51.562;0.004;2022-09-03T02:38:35;100795.08;;;14.70;59.63
42361;BME280;54542;51.562;0.004;2022-09-03T02:41:02;100800.96;;;14.76;59.76
42361;BME280;54542;51.562;0.004;2022-09-03T02:43:35;100803.92;;;14.84;59.99
42361;BME280;54542;51.562;0.004;2022-09-03T02:46:08;100803.68;;;14.86;60.23
42361;BME280;54542;51.562;0.004;2022-09-03T02:48:36;100806.81;;;14.87;60.61
42361;BME280;54542;51.562;0.004;2022-09-03T02:51:03;100805.74;;;14.10;60.81
42361;BME280;54542;51.562;0.004;2022-09-03T02:53:31;100806.36;;;14.99;60.78
42361;BME280;54542;51.562;0.004;2022-09-03T02:55:59;100807.83;;;14.99;61.11
42361;BME280;54542;51.562;0.004;2022-09-03T02:58:27;100812.57;;;14.68;60.97
42361;BME280;54542;51.562;0.004;2022-09-03T03:00:54;100815.31;;;15.12;60.85
42361;BME280;54542;51.562;0.004;2022-09-03T03:03:22;100814.65;;;15.01;61.11
42361;BME280;54542;51.562;0.004;2022-09-03T03:05:52;100819.01;;;15.59;60.75
42361;BME280;54542;51.562;0.004;2022-09-03T03:08:20;100818.63;;;14.99;60.99
42361;BME280;54542;51.562;0.004;2022-09-03T03:10:47;100822.42;;;15.00;61.05
42361;BME280;54542;51.562;0.004;2022-09-03T03:13:15;100822.93;;;14.98;60.72
42361;BME280;54542;51.562;0.004;2022-09-03T03:15:43;100821.34;;;15.40;60.42
42361;BME280;54542;51.562;0.004;2022-09-03T03:18:10;100822.90;;;14.85;60.49
42361;BME280;54542;51.562;0.004;2022-09-03T03:20:37;100821.84;;;14.86;60.11
42361;BME280;54542;51.562;0.004;2022-09-03T03:23:05;100821.15;;;14.78;60.18
42361;BME280;54542;51.562;0.004;2022-09-03T03:25:34;100817.05;;;14.76;60.23
42361;BME280;54542;51.562;0.004;2022-09-03T03:28:02;100813.21;;;14.74;60.40
42361;BME280;54542;51.562;0.004;2022-09-03T03:30:31;100812.17;;;14.75;60.34
42361;BME280;54542;51.562;0.004;2022-09-03T03:32:58;100812.50;;;14.76;60.67
42361;BME280;54542;51.562;0.004;2022-09-03T03:35:25;100809.59;;;14.76;61.21
42361;BME280;54542;51.562;0.004;2022-09-03T03:37:53;100806.70;;;14.82;61.18
42361;BME280;54542;51.562;0.004;2022-09-03T03:40:23;100801.49;;;14.78;61.28
42361;BME280;54542;51.562;0.004;2022-09-03T03:42:51;100800.17;;;14.87;61.53
42361;BME280;54542;51.562;0.004;2022-09-03T03:45:18;100798.32;;;14.89;61.75
42361;BME280;54542;51.562;0.004;2022-09-03T03:47:45;100798.16;;;15.00;61.84
42361;BME280;54542;51.562;0.004;2022-09-03T03:50:13;100795.89;;;14.62;61.90
42361;BME280;54542;51.562;0.004;2022-09-03T03:52:40;100796.10;;;14.24;61.87
42361;BME280;54542;51.562;0.004;2022-09-03T03:55:08;100795.84;;;15.14;62.02
42361;BME280;54542;51.562;0.004;2022-09-03T03:57:35;100797.02;;;14.76;62.00
42361;BME280;54542;51.562;0.004;2022-09-03T04:00:04;100791.73;;;14.78;62.13
42361;BME280;54542;51.562;0.004;2022-09-03T04:02:33;100789.38;;;14.85;62.09
42361;BME280;54542;51.562;0.004;2022-09-03T04:05:00;100788.25;;;14.90;62.08
42361;BME280;54542;51.562;0.004;2022-09-03T04:07:27;100788.80;;;14.92;62.33
42361;BME280;54542;51.562;0.004;2022-09-03T04:09:54;100790.10;;;14.97;62.31
42361;BME280;54542;51.562;0.004;2022-09-03T04:12:21;100787.70;;;15.35;62.68
42361;BME280;54542;51.562;0.004;2022-09-03T04:14:49;100791.37;;;14.95;62.86
42361;BME280;54542;51.562;0.004;2022-09-03T04:17:16;100791.54;;;15.44;62.80
42361;BME280;54542;51.562;0.004;2022-09-03T04:19:43;100788.46;;;15.03;62.67
42361;BME280;54542;51.562;0.004;2022-09-03T04:22:10;100789.20;;;15.53;62.62
42361;BME280;54542;51.562;0.004;2022-09-03T04:24:38;100779.55;;;15.12;62.61
42361;BME280;54542;51.562;0.004;2022-09-03T04:27:05;100773.42;;;15.55;62.69
42361;BME280;54542;51.562;0.004;2022-09-03T04:29:33;100770.40;;;15.22;62.65
42361;BME280;54542;51.562;0.004;2022-09-03T04:32:00;100769.30;;;15.63;62.65
42361;BME280;54542;51.562;0.004;2022-09-03T04:34:27;100769.57;;;15.20;62.90
42361;BME280;54542;51.562;0.004;2022-09-03T04:36:55;100771.88;;;15.18;63.07
42361;BME280;54542;51.562;0.004;2022-09-03T04:39:22;100770.46;;;15.59;63.00
42361;BME280;54542;51.562;0.004;2022-09-03T04:41:49;100769.23;;;15.67;62.90
42361;BME280;54542;51.562;0.004;2022-09-03T04:44:16;100766.87;;;14.92;62.87
42361;BME280;54542;51.562;0.004;2022-09-03T04:46:44;100759.93;;;15.70;62.90
42361;BME280;54542;51.562;0.004;2022-09-03T04:49:11;100761.19;;;14.85;62.92
42361;BME280;54542;51.562;0.004;2022-09-03T04:51:39;100768.96;;;15.71;62.74
42361;BME280;54542;51.562;0.004;2022-09-03T04:54:06;100769.35;;;15.30;62.77
42361;BME280;54542;51.562;0.004;2022-09-03T04:56:35;100772.49;;;15.78;62.67
42361;BME280;54542;51.562;0.004;2022-09-03T04:59:05;100772.26;;;15.20;62.71
42361;BME280;54542;51.562;0.004;2022-09-03T05:01:34;100772.79;;;15.59;62.95
42361;BME280;54542;51.562;0.004;2022-09-03T05:04:02;100772.57;;;15.71;62.96
42361;BME280;54542;51.562;0.004;2022-09-03T05:06:30;100768.71;;;15.73;62.80
42361;BME280;54542;51.562;0.004;2022-09-03T05:08:59;100762.54;;;15.24;63.10
42361;BME280;54542;51.562;0.004;2022-09-03T05:11:28;100760.37;;;15.37;62.79
42361;BME280;54542;51.562;0.004;2022-09-03T05:13:58;100761.33;;;15.42;62.78
42361;BME280;54542;51.562;0.004;2022-09-03T05:16:26;100766.05;;;15.89;62.72
42361;BME280;54542;51.562;0.004;2022-09-03T05:18:55;100767.52;;;15.60;62.44
42361;BME280;54542;51.562;0.004;2022-09-03T05:21:22;100767.62;;;15.05;62.77
42361;BME280;54542;51.562;0.004;2022-09-03T05:23:51;100765.70;;;15.05;62.79
42361;BME280;54542;51.562;0.004;2022-09-03T05:26:21;100765.44;;;15.50;62.79
42361;BME280;54542;51.562;0.004;2022-09-03T05:28:53;100774.42;;;15.10;62.61
42361;BME280;54542;51.562;0.004;2022-09-03T05:31:21;100780.09;;;15.67;62.88
42361;BME280;54542;51.562;0.004;2022-09-03T05:33:51;100786.96;;;15.75;62.91
42361;BME280;54542;51.562;0.004;2022-09-03T05:36:20;100789.54;;;15.81;62.78
42361;BME280;54542;51.562;0.004;2022-09-03T05:38:48;100782.05;;;15.66;62.84
42361;BME280;54542;51.562;0.004;2022-09-03T05:41:16;100781.19;;;15.75;62.90
42361;BME280;54542;51.562;0.004;2022-09-03T05:43:46;100783.68;;;14.98;62.52
42361;BME280;54542;51.562;0.004;2022-09-03T05:46:14;100780.07;;;14.96;62.47
42361;BME280;54542;51.562;0.004;2022-09-03T05:48:42;100777.21;;;15.29;62.56
42361;BME280;54542;51.562;0.004;2022-09-03T05:51:12;100777.49;;;15.31;62.58
42361;BME280;54542;51.562;0.004;2022-09-03T05:53:40;100777.63;;;15.25;62.58
42361;BME280;54542;51.562;0.004;2022-09-03T05:56:09;100779.23;;;15.07;62.80
42361;BME280;54542;51.562;0.004;2022-09-03T05:58:38;100781.40;;;15.10;62.71
42361;BME280;54542;51.562;0.004;2022-09-03T06:01:10;100783.74;;;15.05;62.71
42361;BME280;54542;51.562;0.004;2022-09-03T06:03:37;100780.96;;;14.69;62.53
42361;BME280;54542;51.562;0.004;2022-09-03T06:06:06;100783.19;;;15.05;62.57
42361;BME280;54542;51.562;0.004;2022-09-03T06:08:33;100781.50;;;14.67;62.58
42361;BME280;54542;51.562;0.004;2022-09-03T06:11:01;100781.91;;;15.45;62.55
42361;BME280;54542;51.562;0.004;2022-09-03T06:13:29;100786.55;;;15.44;62.64
42361;BME280;54542;51.562;0.004;2022-09-03T06:15:58;100790.74;;;14.97;62.87
42361;BME280;54542;51.562;0.004;2022-09-03T06:18:26;100791.38;;;15.53;62.82
42361;BME280;54542;51.562;0.004;2022-09-03T06:20:54;100793.25;;;15.55;62.73
42361;BME280;54542;51.562;0.004;2022-09-03T06:23:21;100794.78;;;15.56;62.86
42361;BME280;54542;51.562;0.004;2022-09-03T06:25:59;100796.99;;;15.09;63.09
42361;BME280;54542;51.562;0.004;2022-09-03T06:28:26;100800.85;;;15.54;63.08
42361;BME280;54542;51.562;0.004;2022-09-03T06:30:57;100802.72;;;15.57;62.94
42361;BME280;54542;51.562;0.004;2022-09-03T06:33:25;100805.90;;;15.20;63.02
42361;BME280;54542;51.562;0.004;2022-09-03T06:35:54;100808.78;;;15.67;62.88
42361;BME280;54542;51.562;0.004;2022-09-03T06:38:20;100807.31;;;15.24;63.11
42361;BME280;54542;51.562;0.004;2022-09-03T06:40:52;100807.12;;;15.70;63.16
42361;BME280;54542;51.562;0.004;2022-09-03T06:43:19;100806.57;;;15.04;63.10
42361;BME280;54542;51.562;0.004;2022-09-03T06:45:55;100802.92;;;15.89;63.44
42361;BME280;54542;51.562;0.004;2022-09-03T06:48:24;100801.56;;;15.11;63.58
42361;BME280;54542;51.562;0.004;2022-09-03T06:50:54;100803.94;;;15.65;63.52
42361;BME280;54542;51.562;0.004;2022-09-03T06:53:23;100807.85;;;15.63;63.59
42361;BME280;54542;51.562;0.004;2022-09-03T06:55:53;100813.45;;;15.32;63.54
42361;BME280;54542;51.562;0.004;2022-09-03T06:58:20;100816.90;;;15.38;63.79
42361;BME280;54542;51.562;0.004;2022-09-03T07:00:49;100818.49;;;15.88;64.13
42361;BME280;54542;51.562;0.004;2022-09-03T07:03:16;100816.70;;;15.54;63.90
42361;BME280;54542;51.562;0.004;2022-09-03T07:05:44;100817.82;;;16.05;63.74
42361;BME280;54542;51.562;0.004;2022-09-03T07:08:10;100816.57;;;15.75;63.73
42361;BME280;54542;51.562;0.004;2022-09-03T07:10:38;100816.63;;;16.64;63.89
42361;BME280;54542;51.562;0.004;2022-09-03T07:13:06;100813.11;;;15.95;63.48
42361;BME280;54542;51.562;0.004;2022-09-03T07:15:33;100814.74;;;16.17;62.94
42361;BME280;54542;51.562;0.004;2022-09-03T07:18:00;100812.08;;;16.17;62.81
42361;BME280;54542;51.562;0.004;2022-09-03T07:20:29;100814.58;;;16.25;62.60
42361;BME280;54542;51.562;0.004;2022-09-03T07:22:55;100812.53;;;16.48;62.39
42361;BME280;54542;51.562;0.004;2022-09-03T07:25:23;100815.81;;;16.03;62.18
42361;BME280;54542;51.562;0.004;2022-09-03T07:27:51;100819.36;;;16.56;62.36
42361;BME280;54542;51.562;0.004;2022-09-03T07:30:18;100823.70;;;16.74;61.90
42361;BME280;54542;51.562;0.004;2022-09-03T07:32:45;100824.54;;;16.40;61.74
42361;BME280;54542;51.562;0.004;2022-09-03T07:35:13;100825.24;;;16.57;61.37
42361;BME280;54542;51.562;0.004;2022-09-03T07:37:40;100824.08;;;17.03;61.23
42361;BME280;54542;51.562;0.004;2022-09-03T07:40:09;100829.13;;;16.67;61.20
42361;BME280;54542;51.562;0.004;2022-09-03T07:42:36;100830.40;;;16.64;60.59
42361;BME280;54542;51.562;0.004;2022-09-03T07:45:05;100830.65;;;16.33;60.40
42361;BME280;54542;51.562;0.004;2022-09-03T07:47:33;100826.14;;;16.94;60.34
42361;BME280;54542;51.562;0.004;2022-09-03T07:50:00;100828.81;;;16.69;60.26
42361;BME280;54542;51.562;0.004;2022-09-03T07:52:27;100827.87;;;16.57;59.69
42361;BME280;54542;51.562;0.004;2022-09-03T07:54:55;100829.73;;;16.79;59.28
42361;BME280;54542;51.562;0.004;2022-09-03T07:57:22;100829.29;;;17.86;59.11
42361;BME280;54542;51.562;0.004;2022-09-03T07:59:50;100830.92;;;17.03;58.62
42361;BME280;54542;51.562;0.004;2022-09-03T08:02:17;100827.03;;;17.25;58.45
42361;BME280;54542;51.562;0.004;2022-09-03T08:04:44;100830.51;;;17.26;58.63
42361;BME280;54542;51.562;0.004;2022-09-03T08:07:11;100831.81;;;17.13;59.07
42361;BME280;54542;51.562;0.004;2022-09-03T08:09:39;100834.43;;;17.19;58.59
42361;BME280;54542;51.562;0.004;2022-09-03T08:12:06;100834.54;;;17.45;58.12
42361;BME280;54542;51.562;0.004;2022-09-03T08:14:33;100834.59;;;17.52;58.04
42361;BME280;54542;51.562;0.004;2022-09-03T08:17:01;100837.13;;;17.83;58.03
42361;BME280;54542;51.562;0.004;2022-09-03T08:19:29;100842.70;;;17.64;58.17
42361;BME280;54542;51.562;0.004;2022-09-03T08:21:57;100846.16;;;17.81;57.46
42361;BME280;54542;51.562;0.004;2022-09-03T08:24:24;100848.41;;;17.69;57.37
42361;BME280;54542;51.562;0.004;2022-09-03T08:26:51;100850.02;;;17.35;57.56
42361;BME280;54542;51.562;0.004;2022-09-03T08:29:20;100852.75;;;17.84;57.11
42361;BME280;54542;51.562;0.004;2022-09-03T08:31:47;100852.25;;;17.42;56.06
42361;BME280;54542;51.562;0.004;2022-09-03T08:34:15;100858.45;;;17.91;55.66
42361;BME280;54542;51.562;0.004;2022-09-03T08:36:42;100860.56;;;16.62;56.98
42361;BME280;54542;51.562;0.004;2022-09-03T08:39:10;100859.42;;;17.08;55.42
42361;BME280;54542;51.562;0.004;2022-09-03T08:41:51;100861.94;;;17.90;54.64
42361;BME280;54542;51.562;0.004;2022-09-03T08:44:24;100863.94;;;17.57;52.84
42361;BME280;54542;51.562;0.004;2022-09-03T08:46:56;100859.88;;;17.38;52.61
42361;BME280;54542;51.562;0.004;2022-09-03T08:49:28;100859.97;;;17.89;50.94
42361;BME280;54542;51.562;0.004;2022-09-03T08:52:00;100862.17;;;18.43;50.88
42361;BME280;54542;51.562;0.004;2022-09-03T08:54:31;100860.32;;;17.96;49.77
42361;BME280;54542;51.562;0.004;2022-09-03T08:57:01;100856.59;;;17.62;49.90
42361;BME280;54542;51.562;0.004;2022-09-03T08:59:30;100858.99;;;17.98;51.16
42361;BME280;54542;51.562;0.004;2022-09-03T09:02:03;100858.50;;;17.36;51.66
42361;BME280;54542;51.562;0.004;2022-09-03T09:04:43;100862.72;;;17.48;51.86
42361;BME280;54542;51.562;0.004;2022-09-03T09:07:18;100860.77;;;17.77;50.84
42361;BME280;54542;51.562;0.004;2022-09-03T09:09:52;100865.66;;;18.34;51.77
42361;BME280;54542;51.562;0.004;2022-09-03T09:12:30;100862.22;;;18.40;50.44
42361;BME280;54542;51.562;0.004;2022-09-03T09:15:07;100858.56;;;18.14;49.94
42361;BME280;54542;51.562;0.004;2022-09-03T09:17:48;100857.29;;;18.31;50.97
42361;BME280;54542;51.562;0.004;2022-09-03T09:20:23;100855.08;;;17.97;49.82
42361;BME280;54542;51.562;0.004;2022-09-03T09:22:56;100856.10;;;17.75;49.55
42361;BME280;54542;51.562;0.004;2022-09-03T09:25:25;100856.86;;;18.42;48.99
42361;BME280;54542;51.562;0.004;2022-09-03T09:27:59;100858.57;;;19.21;48.89
42361;BME280;54542;51.562;0.004;2022-09-03T09:30:28;100860.35;;;18.21;49.62
42361;BME280;54542;51.562;0.004;2022-09-03T09:32:55;100860.00;;;18.50;48.52
42361;BME280;54542;51.562;0.004;2022-09-03T09:35:23;100855.98;;;18.04;50.04
42361;BME280;54542;51.562;0.004;2022-09-03T09:37:51;100855.90;;;18.68;49.97
42361;BME280;54542;51.562;0.004;2022-09-03T09:40:25;100856.02;;;18.33;50.79
42361;BME280;54542;51.562;0.004;2022-09-03T09:43:03;100861.01;;;19.17;49.89
42361;BME280;54542;51.562;0.004;2022-09-03T09:45:30;100861.08;;;18.01;50.03
42361;BME280;54542;51.562;0.004;2022-09-03T09:47:57;100858.44;;;18.57;50.69
42361;BME280;54542;51.562;0.004;2022-09-03T09:50:25;100860.84;;;18.34;51.38
42361;BME280;54542;51.562;0.004;2022-09-03T09:53:00;100858.09;;;18.23;50.57
42361;BME280;54542;51.562;0.004;2022-09-03T09:55:27;100855.52;;;19.19;50.45
42361;BME280;54542;51.562;0.004;2022-09-03T09:58:04;100854.74;;;18.25;49.98
42361;BME280;54542;51.562;0.004;2022-09-03T10:00:32;100846.48;;;18.25;51.22
42361;BME280;54542;51.562;0.004;2022-09-03T10:02:59;100849.26;;;18.71;51.75
42361;BME280;54542;51.562;0.004;2022-09-03T10:05:28;100845.88;;;18.76;50.92
42361;BME280;54542;51.562;0.004;2022-09-03T10:07:58;100852.17;;;20.08;50.29
42361;BME280;54542;51.562;0.004;2022-09-03T10:10:26;100858.66;;;19.95;50.75
42361;BME280;54542;51.562;0.004;2022-09-03T10:12:58;100857.97;;;19.60;50.28
42361;BME280;54542;51.562;0.004;2022-09-03T10:15:32;100858.60;;;19.57;49.27
42361;BME280;54542;51.562;0.004;2022-09-03T10:18:07;100856.14;;;19.12;48.12
42361;BME280;54542;51.562;0.004;2022-09-03T10:20:43;100853.13;;;18.64;49.14
42361;BME280;54542;51.562;0.004;2022-09-03T10:23:14;100849.71;;;19.07;49.18
42361;BME280;54542;51.562;0.004;2022-09-03T10:25:53;100848.11;;;19.77;49.16
42361;BME280;54542;51.562;0.004;2022-09-03T10:28:26;100846.23;;;19.43;49.64
42361;BME280;54542;51.562;0.004;2022-09-03T10:31:08;100846.93;;;19.54;48.89
42361;BME280;54542;51.562;0.004;2022-09-03T10:33:43;100847.37;;;20.18;48.10
42361;BME280;54542;51.562;0.004;2022-09-03T10:36:18;100846.63;;;19.91;48.01
42361;BME280;54542;51.562;0.004;2022-09-03T10:38:52;100845.78;;;20.05;47.88
42361;BME280;54542;51.562;0.004;2022-09-03T10:41:35;100847.15;;;20.61;48.03
42361;BME280;54542;51.562;0.004;2022-09-03T10:44:24;100847.55;;;19.61;48.14
42361;BME280;54542;51.562;0.004;2022-09-03T10:47:00;100848.35;;;20.16;46.77
42361;BME280;54542;51.562;0.004;2022-09-03T10:49:41;100850.01;;;20.19;46.35
42361;BME280;54542;51.562;0.004;2022-09-03T10:52:20;100843.41;;;20.79;46.43
42361;BME280;54542;51.562;0.004;2022-09-03T10:55:04;100841.60;;;19.74;46.95
42361;BME280;54542;51.562;0.004;2022-09-03T10:57:43;100850.93;;;20.55;46.32
42361;BME280;54542;51.562;0.004;2022-09-03T11:00:14;100847.94;;;20.59;45.39
42361;BME280;54542;51.562;0.004;2022-09-03T11:03:56;100849.55;;;22.16;45.18
42361;BME280;54542;51.562;0.004;2022-09-03T11:06:28;100850.62;;;21.10;44.44
42361;BME280;54542;51.562;0.004;2022-09-03T11:09:00;100850.89;;;21.99;43.21
42361;BME280;54542;51.562;0.004;2022-09-03T11:11:32;100855.15;;;21.51;43.03
42361;BME280;54542;51.562;0.004;2022-09-03T11:14:07;100854.53;;;21.43;44.90
42361;BME280;54542;51.562;0.004;2022-09-03T11:16:39;100853.88;;;20.53;43.38
42361;BME280;54542;51.562;0.004;2022-09-03T11:19:12;100848.74;;;20.46;43.26
42361;BME280;54542;51.562;0.004;2022-09-03T11:21:43;100846.35;;;20.69;43.04
42361;BME280;54542;51.562;0.004;2022-09-03T11:24:13;100846.91;;;20.87;43.67
42361;BME280;54542;51.562;0.004;2022-09-03T11:26:43;100844.46;;;21.36;43.43
42361;BME280;54542;51.562;0.004;2022-09-03T11:29:14;100843.83;;;21.91;43.74
42361;BME280;54542;51.562;0.004;2022-09-03T11:31:52;100843.22;;;21.91;41.73
42361;BME280;54542;51.562;0.004;2022-09-03T11:34:28;100839.95;;;21.40;40.12
42361;BME280;54542;51.562;0.004;2022-09-03T11:37:29;100833.31;;;22.89;39.61
42361;BME280;54542;51.562;0.004;2022-09-03T11:39:58;100833.66;;;22.38;40.44
42361;BME280;54542;51.562;0.004;2022-09-03T11:42:33;100826.21;;;22.42;38.52
42361;BME280;54542;51.562;0.004;2022-09-03T11:45:36;100822.22;;;24.37;36.64
42361;BME280;54542;51.562;0.004;2022-09-03T11:48:17;100824.55;;;23.94;36.72
42361;BME280;54542;51.562;0.004;2022-09-03T11:50:53;100824.83;;;23.58;37.43
42361;BME280;54542;51.562;0.004;2022-09-03T11:53:24;100825.88;;;24.35;36.19
42361;BME280;54542;51.562;0.004;2022-09-03T11:55:54;100832.37;;;24.35;36.15
42361;BME280;54542;51.562;0.004;2022-09-03T11:58:24;100827.64;;;25.60;33.66
42361;BME280;54542;51.562;0.004;2022-09-03T12:00:52;100822.58;;;24.72;33.89
42361;BME280;54542;51.562;0.004;2022-09-03T12:03:23;100823.09;;;24.99;33.52
42361;BME280;54542;51.562;0.004;2022-09-03T12:06:04;100820.13;;;25.07;33.39
42361;BME280;54542;51.562;0.004;2022-09-03T12:08:47;100819.61;;;26.33;34.21
42361;BME280;54542;51.562;0.004;2022-09-03T12:11:31;100817.04;;;26.58;34.52
42361;BME280;54542;51.562;0.004;2022-09-03T12:14:07;100819.44;;;25.81;33.25
42361;BME280;54542;51.562;0.004;2022-09-03T12:16:50;100819.63;;;25.20;33.60
42361;BME280;54542;51.562;0.004;2022-09-03T12:19:26;100821.00;;;24.79;33.58
42361;BME280;54542;51.562;0.004;2022-09-03T12:21:56;100824.58;;;24.44;34.21
42361;BME280;54542;51.562;0.004;2022-09-03T12:24:25;100822.89;;;24.13;34.63
42361;BME280;54542;51.562;0.004;2022-09-03T12:26:53;100820.29;;;23.89;34.48
42361;BME280;54542;51.562;0.004;2022-09-03T12:29:23;100820.33;;;23.95;33.79
42361;BME280;54542;51.562;0.004;2022-09-03T12:31:51;100819.87;;;24.29;33.74
42361;BME280;54542;51.562;0.004;2022-09-03T12:34:19;100825.35;;;24.92;33.73
42361;BME280;54542;51.562;0.004;2022-09-03T12:36:48;100819.64;;;23.94;33.53
42361;BME280;54542;51.562;0.004;2022-09-03T12:39:17;100821.55;;;23.23;35.35
42361;BME280;54542;51.562;0.004;2022-09-03T12:41:55;100821.55;;;23.12;34.84
42361;BME280;54542;51.562;0.004;2022-09-03T12:44:25;100820.21;;;24.54;34.13
42361;BME280;54542;51.562;0.004;2022-09-03T12:46:59;100825.74;;;24.81;33.71
42361;BME280;54542;51.562;0.004;2022-09-03T12:49:31;100827.85;;;25.02;33.05
42361;BME280;54542;51.562;0.004;2022-09-03T12:52:02;100827.94;;;23.32;34.52
42361;BME280;54542;51.562;0.004;2022-09-03T12:54:35;100829.27;;;24.26;35.09
42361;BME280;54542;51.562;0.004;2022-09-03T12:57:06;100832.33;;;23.46;33.65
42361;BME280;54542;51.562;0.004;2022-09-03T12:59:36;100838.06;;;22.11;35.73
42361;BME280;54542;51.562;0.004;2022-09-03T13:02:12;100836.04;;;22.22;36.87
42361;BME280;54542;51.562;0.004;2022-09-03T13:04:43;100836.19;;;23.99;36.31
42361;BME280;54542;51.562;0.004;2022-09-03T13:07:18;100828.63;;;24.03;34.93
42361;BME280;54542;51.562;0.004;2022-09-03T13:09:47;100836.29;;;24.28;34.86
42361;BME280;54542;51.562;0.004;2022-09-03T13:12:28;100836.37;;;24.48;33.89
42361;BME280;54542;51.562;0.004;2022-09-03T13:14:56;100841.08;;;23.21;35.25